createdAt,value
2018-06-04T06:08:05.476Z,52.94
2018-06-04T06:10:33.777Z,52.56
2018-06-04T06:13:02.411Z,53.29
2018-06-04T06:15:31.024Z,53.00
2018-06-04T06:17:59.704Z,52.29
2018-06-04T06:20:28.148Z,52.09
2018-06-04T06:22:56.966Z,52.47
2018-06-04T06:25:25.796Z,50.14
2018-06-04T06:27:54.749Z,50.94
2018-06-04T06:30:23.342Z,51.46
2018-06-04T06:32:52.517Z,50.44
2018-06-04T06:35:20.783Z,50.79
2018-06-04T06:37:49.584Z,50.09
2018-06-04T06:40:17.881Z,50.23
2018-06-04T06:42:46.659Z,50.42
2018-06-04T06:45:15.546Z,49.58
2018-06-04T06:47:44.657Z,49.10
2018-06-04T06:50:13.660Z,49.08
2018-06-04T06:52:42.850Z,49.60
2018-06-04T06:55:12.044Z,48.94
2018-06-04T06:57:41.028Z,48.45
2018-06-04T07:00:10.524Z,48.85
2018-06-04T07:02:39.455Z,49.09
2018-06-04T07:05:08.049Z,48.22
2018-06-04T07:07:36.667Z,48.14
2018-06-04T07:10:05.309Z,48.49
2018-06-04T07:12:34.654Z,48.14
2018-06-04T07:15:03.527Z,48.02
2018-06-04T07:17:32.769Z,47.17
2018-06-04T07:20:01.446Z,48.73
2018-06-04T07:22:30.303Z,47.93
2018-06-04T07:24:58.940Z,48.64
2018-06-04T07:27:27.823Z,45.89
2018-06-04T07:29:56.616Z,45.52
2018-06-04T07:32:25.445Z,44.20
2018-06-04T07:34:55.032Z,43.10
2018-06-04T07:37:23.894Z,46.88
2018-06-04T07:39:51.991Z,43.37
2018-06-04T07:42:21.292Z,46.37
2018-06-04T07:44:50.698Z,42.54
2018-06-04T07:47:19.284Z,47.01
2018-06-04T07:49:48.787Z,47.04
2018-06-04T07:52:17.536Z,46.65
2018-06-04T07:54:46.157Z,47.02
2018-06-04T07:57:14.808Z,46.50
2018-06-04T07:59:44.147Z,43.23
2018-06-04T08:02:12.986Z,46.16
2018-06-04T08:04:42.623Z,46.02
2018-06-04T08:07:12.941Z,46.26
2018-06-04T08:09:43.224Z,46.80
2018-06-04T08:12:12.252Z,45.77
2018-06-04T08:14:40.998Z,45.61
2018-06-04T08:17:09.442Z,45.35
2018-06-04T08:19:37.626Z,44.65
2018-06-04T08:22:05.730Z,44.82
2018-06-04T08:24:34.285Z,44.89
2018-06-04T08:27:02.846Z,45.43
2018-06-04T08:29:32.958Z,45.59
2018-06-04T08:32:02.231Z,45.38
2018-06-04T08:34:29.535Z,45.35
2018-06-04T08:36:57.606Z,45.50
2018-06-04T08:39:27.380Z,45.60
2018-06-04T08:41:55.984Z,44.94
2018-06-04T08:44:25.525Z,45.21
2018-06-04T08:46:54.295Z,44.57
2018-06-04T08:49:22.817Z,44.35
2018-06-04T08:51:51.540Z,45.73
2018-06-04T08:54:21.049Z,44.07
2018-06-04T08:56:50.537Z,45.05
2018-06-04T08:59:19.156Z,44.18
2018-06-04T09:01:48.041Z,43.31
2018-06-04T09:04:16.933Z,42.41
2018-06-04T09:06:46.443Z,42.85
2018-06-04T09:09:14.771Z,41.65
2018-06-04T09:11:43.477Z,41.76
2018-06-04T09:14:12.413Z,41.22
2018-06-04T09:16:41.550Z,41.23
2018-06-04T09:19:10.227Z,41.39
2018-06-04T09:21:38.867Z,39.78
2018-06-04T09:24:08.296Z,42.38
2018-06-04T09:26:37.975Z,42.45
2018-06-04T09:29:06.593Z,41.68
2018-06-04T09:31:34.990Z,41.99
2018-06-04T09:34:03.650Z,41.20
2018-06-04T09:36:32.493Z,42.13
2018-06-04T09:39:02.292Z,41.47
2018-06-04T09:41:31.028Z,41.75
2018-06-04T09:44:00.399Z,41.27
2018-06-04T09:46:29.479Z,40.59
2018-06-04T09:48:59.505Z,41.24
2018-06-04T09:51:28.936Z,40.70
2018-06-04T09:53:58.359Z,40.57
2018-06-04T09:56:28.682Z,41.95
2018-06-04T09:58:57.320Z,40.63
2018-06-04T10:01:26.018Z,40.61
2018-06-04T10:03:54.883Z,40.58
2018-06-04T10:06:23.594Z,40.36
2018-06-04T10:08:52.545Z,39.96
2018-06-04T10:11:21.755Z,40.70
2018-06-04T10:13:50.660Z,40.33
2018-06-04T10:16:19.573Z,40.49
2018-06-04T10:18:48.261Z,39.68
2018-06-04T10:21:16.807Z,40.10
2018-06-04T10:23:45.264Z,40.47
2018-06-04T10:26:13.721Z,41.32
2018-06-04T10:28:42.221Z,40.38
2018-06-04T10:31:10.664Z,40.03
2018-06-04T10:33:39.204Z,40.31
2018-06-04T10:36:07.638Z,40.31
2018-06-04T10:38:36.145Z,40.19
2018-06-04T10:41:04.745Z,39.75
2018-06-04T10:43:33.414Z,40.31
2018-06-04T10:46:02.355Z,40.00
2018-06-04T10:48:30.687Z,39.52
2018-06-04T10:51:00.265Z,39.84
2018-06-04T10:53:28.794Z,40.77
2018-06-04T10:55:57.740Z,40.05
2018-06-04T10:58:26.561Z,39.46
2018-06-04T11:00:55.463Z,39.95
2018-06-04T11:03:23.848Z,40.82
2018-06-04T11:05:52.521Z,41.47
2018-06-04T11:08:21.034Z,41.56
2018-06-04T11:10:50.140Z,41.05
2018-06-04T11:13:19.048Z,40.82
2018-06-04T11:15:47.802Z,40.76
2018-06-04T11:18:16.554Z,40.73
2018-06-04T11:20:45.608Z,40.66
2018-06-04T11:23:14.286Z,40.03
2018-06-04T11:25:43.268Z,40.33
2018-06-04T11:28:11.940Z,40.79
2018-06-04T11:30:40.840Z,40.48
2018-06-04T11:33:09.390Z,41.11
2018-06-04T11:35:37.984Z,41.20
2018-06-04T11:38:06.645Z,41.03
2018-06-04T11:40:35.522Z,41.06
2018-06-04T11:43:04.369Z,41.06
2018-06-04T11:45:32.929Z,40.20
2018-06-04T11:48:01.661Z,39.98
2018-06-04T11:50:30.451Z,40.77
2018-06-04T11:52:59.052Z,40.04
2018-06-04T11:55:27.653Z,40.54
2018-06-04T11:57:55.671Z,40.26
2018-06-04T12:00:24.215Z,39.51
2018-06-04T12:02:52.816Z,41.86
2018-06-04T12:05:21.646Z,42.49
2018-06-04T12:07:50.379Z,42.93
2018-06-04T12:10:18.704Z,42.84
2018-06-04T12:12:47.425Z,42.97
2018-06-04T12:15:15.529Z,42.53
2018-06-04T12:17:43.807Z,42.54
2018-06-04T12:20:12.572Z,43.17
2018-06-04T12:22:41.265Z,43.64
2018-06-04T12:25:09.592Z,43.58
2018-06-04T12:27:37.568Z,42.87
2018-06-04T12:30:05.857Z,42.68
2018-06-04T12:32:34.566Z,43.27
2018-06-04T12:35:02.873Z,43.24
2018-06-04T12:37:31.307Z,43.48
2018-06-04T12:39:59.709Z,42.99
2018-06-04T12:42:28.535Z,42.54
2018-06-04T12:44:56.825Z,42.74
2018-06-04T12:47:25.498Z,41.60
2018-06-04T12:49:54.274Z,41.74
2018-06-04T12:52:22.777Z,42.05
2018-06-04T12:54:51.438Z,41.56
2018-06-04T12:57:19.851Z,41.18
2018-06-04T12:59:48.427Z,41.60
2018-06-04T13:02:16.713Z,41.84
2018-06-04T13:04:45.684Z,40.79
2018-06-04T13:07:15.403Z,40.75
2018-06-04T13:09:43.800Z,41.49
2018-06-04T13:12:12.489Z,41.45
2018-06-04T13:14:40.963Z,40.90
2018-06-04T13:17:09.956Z,41.17
2018-06-04T13:19:38.754Z,41.01
2018-06-04T13:22:07.510Z,41.50
2018-06-04T13:24:35.821Z,41.37
2018-06-04T13:27:04.314Z,41.46
2018-06-04T13:29:32.605Z,41.42
2018-06-04T13:32:01.253Z,41.23
2018-06-04T13:34:29.735Z,40.44
2018-06-04T13:36:58.271Z,40.21
2018-06-04T13:39:27.014Z,41.31
2018-06-04T13:41:55.998Z,41.15
2018-06-04T13:44:25.147Z,41.39
2018-06-04T13:46:53.613Z,41.23
2018-06-04T13:49:22.465Z,40.87
2018-06-04T13:51:50.838Z,41.77
2018-06-04T13:54:19.522Z,41.19
2018-06-04T13:56:47.907Z,41.28
2018-06-04T13:59:16.303Z,41.33
